sensor_id;sensor_type;location;lat;lon;timestamp;temperature;humidity
66670;DHT22;53568;52.164;4.472;2023-04-29T00:01:07;10.39;80.20
66670;DHT22;53568;52.164;4.472;2023-04-29T00:03:33;10.55;79.85
66670;DHT22;53568;52.164;4.472;2023-04-29T00:05:59;10.55;79.67
66670;DHT22;53568;52.164;4.472;2023-04-29T00:08:25;10.49;79.73
66670;DHT22;53568;52.164;4.472;2023-04-29T00:10:51;10.39;80.24
66670;DHT22;53568;52.164;4.472;2023-04-29T00:13:17;10.44;79.93
66670;DHT22;53568;52.164;4.472;2023-04-29T00:15:43;10.41;80.29
66670;DHT22;53568;52.164;4.472;2023-04-29T00:18:09;10.26;80.88
66670;DHT22;53568;52.164;4.472;2023-04-29T00:20:34;10.45;80.37
66670;DHT22;53568;52.164;4.472;2023-04-29T00:23:00;10.38;80.73
66670;DHT22;53568;52.164;4.472;2023-04-29T00:25:26;10.36;80.81
66670;DHT22;53568;52.164;4.472;2023-04-29T00:27:51;10.31;80.80
66670;DHT22;53568;52.164;4.472;2023-04-29T00:30:17;10.16;81.61
66670;DHT22;53568;52.164;4.472;2023-04-29T00:32:43;10.15;81.92
66670;DHT22;53568;52.164;4.472;2023-04-29T00:35:09;10.12;82.10
66670;DHT22;53568;52.164;4.472;2023-04-29T00:37:35;10.14;82.26
66670;DHT22;53568;52.164;4.472;2023-04-29T00:40:01;10.28;81.69
66670;DHT22;53568;52.164;4.472;2023-04-29T00:42:28;10.28;81.41
66670;DHT22;53568;52.164;4.472;2023-04-29T00:44:53;10.26;81.28
66670;DHT22;53568;52.164;4.472;2023-04-29T00:47:19;10.24;81.42
66670;DHT22;53568;52.164;4.472;2023-04-29T00:49:45;10.22;81.60
66670;DHT22;53568;52.164;4.472;2023-04-29T00:52:10;10.26;81.47
66670;DHT22;53568;52.164;4.472;2023-04-29T00:54:39;10.31;81.37
66670;DHT22;53568;52.164;4.472;2023-04-29T00:57:05;10.25;81.59
66670;DHT22;53568;52.164;4.472;2023-04-29T00:59:32;10.34;81.26
66670;DHT22;53568;52.164;4.472;2023-04-29T01:02:02;10.26;81.82
66670;DHT22;53568;52.164;4.472;2023-04-29T01:04:29;10.28;81.67
66670;DHT22;53568;52.164;4.472;2023-04-29T01:15:03;10.34;81.73
66670;DHT22;53568;52.164;4.472;2023-04-29T01:17:36;10.35;81.68
66670;DHT22;53568;52.164;4.472;2023-04-29T01:20:07;10.39;81.60
66670;DHT22;53568;52.164;4.472;2023-04-29T01:22:33;10.28;81.96
66670;DHT22;53568;52.164;4.472;2023-04-29T01:24:59;10.31;82.06
66670;DHT22;53568;52.164;4.472;2023-04-29T01:27:33;10.39;81.86
66670;DHT22;53568;52.164;4.472;2023-04-29T01:30:12;10.44;81.66
66670;DHT22;53568;52.164;4.472;2023-04-29T01:33:02;10.49;81.62
66670;DHT22;53568;52.164;4.472;2023-04-29T01:41:13;10.39;81.99
66670;DHT22;53568;52.164;4.472;2023-04-29T01:43:40;10.28;82.62
66670;DHT22;53568;52.164;4.472;2023-04-29T01:46:08;10.32;82.13
66670;DHT22;53568;52.164;4.472;2023-04-29T01:48:35;10.26;81.89
66670;DHT22;53568;52.164;4.472;2023-04-29T01:51:01;10.36;80.83
66670;DHT22;53568;52.164;4.472;2023-04-29T01:53:27;10.35;80.59
66670;DHT22;53568;52.164;4.472;2023-04-29T01:55:52;10.31;80.64
66670;DHT22;53568;52.164;4.472;2023-04-29T01:58:18;10.39;79.96
66670;DHT22;53568;52.164;4.472;2023-04-29T02:00:43;10.34;79.92
66670;DHT22;53568;52.164;4.472;2023-04-29T02:03:09;10.35;80.17
66670;DHT22;53568;52.164;4.472;2023-04-29T02:05:34;10.42;79.96
66670;DHT22;53568;52.164;4.472;2023-04-29T02:08:01;10.53;79.63
66670;DHT22;53568;52.164;4.472;2023-04-29T02:10:27;10.56;79.61
66670;DHT22;53568;52.164;4.472;2023-04-29T02:12:53;10.65;79.35
66670;DHT22;53568;52.164;4.472;2023-04-29T02:15:19;10.60;79.23
66670;DHT22;53568;52.164;4.472;2023-04-29T02:17:45;10.65;79.01
66670;DHT22;53568;52.164;4.472;2023-04-29T02:20:11;10.50;79.05
66670;DHT22;53568;52.164;4.472;2023-04-29T02:22:37;10.66;78.63
66670;DHT22;53568;52.164;4.472;2023-04-29T02:25:03;10.53;78.60
66670;DHT22;53568;52.164;4.472;2023-04-29T02:27:30;10.65;78.64
66670;DHT22;53568;52.164;4.472;2023-04-29T02:29:56;10.70;78.61
66670;DHT22;53568;52.164;4.472;2023-04-29T02:32:21;10.69;78.17
66670;DHT22;53568;52.164;4.472;2023-04-29T02:34:47;10.53;78.94
66670;DHT22;53568;52.164;4.472;2023-04-29T02:37:13;10.59;79.06
66670;DHT22;53568;52.164;4.472;2023-04-29T02:39:40;10.69;78.52
66670;DHT22;53568;52.164;4.472;2023-04-29T02:42:06;10.79;78.21
66670;DHT22;53568;52.164;4.472;2023-04-29T02:44:31;10.83;77.66
66670;DHT22;53568;52.164;4.472;2023-04-29T02:46:57;10.82;77.70
66670;DHT22;53568;52.164;4.472;2023-04-29T02:49:22;10.82;77.58
66670;DHT22;53568;52.164;4.472;2023-04-29T02:51:48;10.72;77.17
66670;DHT22;53568;52.164;4.472;2023-04-29T02:54:16;10.84;76.87
66670;DHT22;53568;52.164;4.472;2023-04-29T02:56:42;10.88;76.84
66670;DHT22;53568;52.164;4.472;2023-04-29T02:59:07;10.92;76.56
66670;DHT22;53568;52.164;4.472;2023-04-29T03:01:34;10.88;76.90
66670;DHT22;53568;52.164;4.472;2023-04-29T03:04:00;10.77;76.99
66670;DHT22;53568;52.164;4.472;2023-04-29T03:06:25;10.83;77.43
66670;DHT22;53568;52.164;4.472;2023-04-29T03:08:52;10.83;77.40
66670;DHT22;53568;52.164;4.472;2023-04-29T03:11:19;10.75;77.93
66670;DHT22;53568;52.164;4.472;2023-04-29T03:13:44;10.70;78.15
66670;DHT22;53568;52.164;4.472;2023-04-29T03:16:11;10.88;77.81
66670;DHT22;53568;52.164;4.472;2023-04-29T03:18:38;10.90;78.00
66670;DHT22;53568;52.164;4.472;2023-04-29T03:21:04;10.93;77.83
66670;DHT22;53568;52.164;4.472;2023-04-29T03:23:29;10.90;78.24
66670;DHT22;53568;52.164;4.472;2023-04-29T03:25:55;10.88;78.22
66670;DHT22;53568;52.164;4.472;2023-04-29T03:28:23;10.68;79.09
66670;DHT22;53568;52.164;4.472;2023-04-29T03:30:48;10.69;79.24
66670;DHT22;53568;52.164;4.472;2023-04-29T03:33:14;10.73;79.16
66670;DHT22;53568;52.164;4.472;2023-04-29T03:35:39;10.80;79.08
66670;DHT22;53568;52.164;4.472;2023-04-29T03:38:05;10.82;79.11
66670;DHT22;53568;52.164;4.472;2023-04-29T03:40:30;10.75;79.47
66670;DHT22;53568;52.164;4.472;2023-04-29T03:42:56;10.84;79.41
66670;DHT22;53568;52.164;4.472;2023-04-29T03:45:21;10.83;79.39
66670;DHT22;53568;52.164;4.472;2023-04-29T03:47:47;10.84;79.54
66670;DHT22;53568;52.164;4.472;2023-04-29T03:50:12;10.99;79.22
66670;DHT22;53568;52.164;4.472;2023-04-29T03:52:38;11.04;79.01
66670;DHT22;53568;52.164;4.472;2023-04-29T03:55:04;11.10;78.91
66670;DHT22;53568;52.164;4.472;2023-04-29T03:57:29;10.96;79.83
66670;DHT22;53568;52.164;4.472;2023-04-29T03:59:55;10.89;80.06
66670;DHT22;53568;52.164;4.472;2023-04-29T04:02:21;10.86;80.66
66670;DHT22;53568;52.164;4.472;2023-04-29T04:04:46;10.90;80.79
66670;DHT22;53568;52.164;4.472;2023-04-29T04:07:12;10.95;80.82
66670;DHT22;53568;52.164;4.472;2023-04-29T04:09:37;10.86;81.26
66670;DHT22;53568;52.164;4.472;2023-04-29T04:12:03;10.92;81.15
66670;DHT22;53568;52.164;4.472;2023-04-29T04:14:29;10.88;81.54
66670;DHT22;53568;52.164;4.472;2023-04-29T04:16:54;10.86;81.75
66670;DHT22;53568;52.164;4.472;2023-04-29T04:19:20;10.90;81.56
66670;DHT22;53568;52.164;4.472;2023-04-29T04:21:45;10.89;81.79
66670;DHT22;53568;52.164;4.472;2023-04-29T04:24:11;10.93;81.50
66670;DHT22;53568;52.164;4.472;2023-04-29T04:26:36;10.92;81.67
66670;DHT22;53568;52.164;4.472;2023-04-29T04:29:02;11.03;81.46
66670;DHT22;53568;52.164;4.472;2023-04-29T04:31:27;10.97;81.63
66670;DHT22;53568;52.164;4.472;2023-04-29T04:33:54;10.92;81.53
66670;DHT22;53568;52.164;4.472;2023-04-29T04:36:20;10.86;81.81
66670;DHT22;53568;52.164;4.472;2023-04-29T04:38:46;10.84;82.03
66670;DHT22;53568;52.164;4.472;2023-04-29T04:41:12;10.90;81.87
66670;DHT22;53568;52.164;4.472;2023-04-29T04:43:37;10.77;82.15
66670;DHT22;53568;52.164;4.472;2023-04-29T04:46:15;10.82;82.14
66670;DHT22;53568;52.164;4.472;2023-04-29T04:48:41;10.73;82.37
66670;DHT22;53568;52.164;4.472;2023-04-29T04:51:11;10.77;82.17
66670;DHT22;53568;52.164;4.472;2023-04-29T04:53:38;10.73;82.32
66670;DHT22;53568;52.164;4.472;2023-04-29T04:56:04;10.75;82.60
66670;DHT22;53568;52.164;4.472;2023-04-29T04:58:30;10.73;82.25
66670;DHT22;53568;52.164;4.472;2023-04-29T05:00:57;10.73;82.23
66670;DHT22;53568;52.164;4.472;2023-04-29T05:03:23;10.72;82.47
66670;DHT22;53568;52.164;4.472;2023-04-29T05:05:58;10.69;82.40
66670;DHT22;53568;52.164;4.472;2023-04-29T05:08:24;10.52;82.61
66670;DHT22;53568;52.164;4.472;2023-04-29T05:10:50;10.82;81.97
66670;DHT22;53568;52.164;4.472;2023-04-29T05:13:16;10.77;81.64
66670;DHT22;53568;52.164;4.472;2023-04-29T05:15:42;10.76;81.73
66670;DHT22;53568;52.164;4.472;2023-04-29T05:18:09;10.75;81.90
66670;DHT22;53568;52.164;4.472;2023-04-29T05:20:35;10.82;81.26
66670;DHT22;53568;52.164;4.472;2023-04-29T05:23:01;10.69;80.96
66670;DHT22;53568;52.164;4.472;2023-04-29T05:25:27;10.83;80.44
66670;DHT22;53568;52.164;4.472;2023-04-29T05:27:52;10.95;79.52
66670;DHT22;53568;52.164;4.472;2023-04-29T05:30:18;10.88;78.98
66670;DHT22;53568;52.164;4.472;2023-04-29T05:32:44;10.93;77.70
66670;DHT22;53568;52.164;4.472;2023-04-29T05:35:10;11.04;77.26
66670;DHT22;53568;52.164;4.472;2023-04-29T05:37:36;11.04;77.16
66670;DHT22;53568;52.164;4.472;2023-04-29T05:40:01;11.19;76.90
66670;DHT22;53568;52.164;4.472;2023-04-29T05:42:27;11.02;76.66
66670;DHT22;53568;52.164;4.472;2023-04-29T05:44:52;11.14;76.35
66670;DHT22;53568;52.164;4.472;2023-04-29T05:47:18;10.95;76.43
66670;DHT22;53568;52.164;4.472;2023-04-29T05:49:43;11.06;75.94
66670;DHT22;53568;52.164;4.472;2023-04-29T05:52:09;10.96;76.15
66670;DHT22;53568;52.164;4.472;2023-04-29T05:54:34;11.06;76.10
66670;DHT22;53568;52.164;4.472;2023-04-29T05:57:01;11.16;76.01
66670;DHT22;53568;52.164;4.472;2023-04-29T05:59:30;11.23;76.06
66670;DHT22;53568;52.164;4.472;2023-04-29T06:01:56;11.30;75.84
66670;DHT22;53568;52.164;4.472;2023-04-29T06:04:23;11.31;76.50
66670;DHT22;53568;52.164;4.472;2023-04-29T06:06:50;11.38;77.25
66670;DHT22;53568;52.164;4.472;2023-04-29T06:09:16;11.36;78.03
66670;DHT22;53568;52.164;4.472;2023-04-29T06:11:42;11.31;78.41
66670;DHT22;53568;52.164;4.472;2023-04-29T06:14:09;11.28;78.46
66670;DHT22;53568;52.164;4.472;2023-04-29T06:16:35;11.27;78.87
66670;DHT22;53568;52.164;4.472;2023-04-29T06:19:01;11.17;79.07
66670;DHT22;53568;52.164;4.472;2023-04-29T06:21:27;11.24;78.57
66670;DHT22;53568;52.164;4.472;2023-04-29T06:23:53;11.17;78.40
66670;DHT22;53568;52.164;4.472;2023-04-29T06:26:19;11.33;77.75
66670;DHT22;53568;52.164;4.472;2023-04-29T06:28:45;11.33;77.37
66670;DHT22;53568;52.164;4.472;2023-04-29T06:31:11;11.34;77.25
66670;DHT22;53568;52.164;4.472;2023-04-29T06:33:37;11.48;76.09
66670;DHT22;53568;52.164;4.472;2023-04-29T06:36:03;11.64;75.49
66670;DHT22;53568;52.164;4.472;2023-04-29T06:38:29;11.61;75.52
66670;DHT22;53568;52.164;4.472;2023-04-29T06:40:54;11.68;75.32
66670;DHT22;53568;52.164;4.472;2023-04-29T06:43:22;11.67;74.73
66670;DHT22;53568;52.164;4.472;2023-04-29T06:45:47;11.68;74.53
66670;DHT22;53568;52.164;4.472;2023-04-29T06:48:13;11.58;74.23
66670;DHT22;53568;52.164;4.472;2023-04-29T06:50:38;11.63;73.92
66670;DHT22;53568;52.164;4.472;2023-04-29T06:53:04;11.61;74.09
66670;DHT22;53568;52.164;4.472;2023-04-29T06:55:29;11.44;74.81
66670;DHT22;53568;52.164;4.472;2023-04-29T06:57:55;11.63;74.54
66670;DHT22;53568;52.164;4.472;2023-04-29T07:00:21;11.67;74.03
66670;DHT22;53568;52.164;4.472;2023-04-29T07:02:47;11.82;75.03
66670;DHT22;53568;52.164;4.472;2023-04-29T07:05:13;11.63;75.37
66670;DHT22;53568;52.164;4.472;2023-04-29T07:07:38;11.75;74.86
66670;DHT22;53568;52.164;4.472;2023-04-29T07:10:04;11.67;74.97
66670;DHT22;53568;52.164;4.472;2023-04-29T07:12:30;11.64;75.13
66670;DHT22;53568;52.164;4.472;2023-04-29T07:14:56;11.68;75.45
66670;DHT22;53568;52.164;4.472;2023-04-29T07:17:22;11.80;76.08
66670;DHT22;53568;52.164;4.472;2023-04-29T07:19:47;11.91;75.05
66670;DHT22;53568;52.164;4.472;2023-04-29T07:22:13;11.78;74.84
66670;DHT22;53568;52.164;4.472;2023-04-29T07:24:38;11.66;75.17
66670;DHT22;53568;52.164;4.472;2023-04-29T07:27:05;11.60;74.84
66670;DHT22;53568;52.164;4.472;2023-04-29T07:29:32;11.56;74.89
66670;DHT22;53568;52.164;4.472;2023-04-29T07:31:57;11.50;74.54
66670;DHT22;53568;52.164;4.472;2023-04-29T07:34:23;11.51;74.37
66670;DHT22;53568;52.164;4.472;2023-04-29T07:36:48;11.44;74.95
66670;DHT22;53568;52.164;4.472;2023-04-29T07:39:14;11.43;74.97
66670;DHT22;53568;52.164;4.472;2023-04-29T07:41:40;11.41;74.80
66670;DHT22;53568;52.164;4.472;2023-04-29T07:44:06;11.54;74.79
66670;DHT22;53568;52.164;4.472;2023-04-29T07:46:31;11.64;74.42
66670;DHT22;53568;52.164;4.472;2023-04-29T07:48:57;11.85;74.20
66670;DHT22;53568;52.164;4.472;2023-04-29T07:51:22;12.06;73.12
66670;DHT22;53568;52.164;4.472;2023-04-29T07:53:48;12.06;72.41
66670;DHT22;53568;52.164;4.472;2023-04-29T07:56:13;12.02;71.26
66670;DHT22;53568;52.164;4.472;2023-04-29T07:58:40;12.10;71.51
66670;DHT22;53568;52.164;4.472;2023-04-29T08:01:07;12.11;71.35
66670;DHT22;53568;52.164;4.472;2023-04-29T08:03:33;12.20;70.49
66670;DHT22;53568;52.164;4.472;2023-04-29T08:06:03;12.10;70.87
66670;DHT22;53568;52.164;4.472;2023-04-29T08:08:32;12.21;70.99
66670;DHT22;53568;52.164;4.472;2023-04-29T08:10:58;12.39;69.94
66670;DHT22;53568;52.164;4.472;2023-04-29T08:13:24;12.15;69.70
66670;DHT22;53568;52.164;4.472;2023-04-29T08:15:49;12.06;69.70
66670;DHT22;53568;52.164;4.472;2023-04-29T08:18:15;12.24;69.35
66670;DHT22;53568;52.164;4.472;2023-04-29T08:20:41;12.22;68.44
66670;DHT22;53568;52.164;4.472;2023-04-29T08:23:06;12.26;68.95
66670;DHT22;53568;52.164;4.472;2023-04-29T08:25:32;12.32;69.12
66670;DHT22;53568;52.164;4.472;2023-04-29T08:27:58;12.39;68.06
66670;DHT22;53568;52.164;4.472;2023-04-29T08:30:23;12.36;67.94
66670;DHT22;53568;52.164;4.472;2023-04-29T08:32:49;12.35;67.70
66670;DHT22;53568;52.164;4.472;2023-04-29T08:35:15;12.31;68.27
66670;DHT22;53568;52.164;4.472;2023-04-29T08:37:40;12.36;68.60
66670;DHT22;53568;52.164;4.472;2023-04-29T08:40:07;12.41;67.97
66670;DHT22;53568;52.164;4.472;2023-04-29T08:42:35;12.49;68.28
66670;DHT22;53568;52.164;4.472;2023-04-29T08:45:02;12.35;68.70
66670;DHT22;53568;52.164;4.472;2023-04-29T08:47:32;12.33;67.65
66670;DHT22;53568;52.164;4.472;2023-04-29T08:50:04;12.55;67.92
66670;DHT22;53568;52.164;4.472;2023-04-29T08:52:30;12.59;67.69
66670;DHT22;53568;52.164;4.472;2023-04-29T08:54:57;12.55;67.72
66670;DHT22;53568;52.164;4.472;2023-04-29T08:57:25;12.55;67.95
66670;DHT22;53568;52.164;4.472;2023-04-29T08:59:52;12.66;67.84
66670;DHT22;53568;52.164;4.472;2023-04-29T09:02:19;12.86;67.71
66670;DHT22;53568;52.164;4.472;2023-04-29T09:04:52;12.80;67.47
66670;DHT22;53568;52.164;4.472;2023-04-29T09:07:20;12.66;68.04
66670;DHT22;53568;52.164;4.472;2023-04-29T09:09:48;12.70;67.80
66670;DHT22;53568;52.164;4.472;2023-04-29T09:12:14;12.59;67.59
66670;DHT22;53568;52.164;4.472;2023-04-29T09:14:39;12.69;67.64
66670;DHT22;53568;52.164;4.472;2023-04-29T09:17:05;12.59;67.91
66670;DHT22;53568;52.164;4.472;2023-04-29T09:19:32;12.75;67.73
66670;DHT22;53568;52.164;4.472;2023-04-29T09:21:59;12.69;68.09
66670;DHT22;53568;52.164;4.472;2023-04-29T09:24:26;12.87;67.19
66670;DHT22;53568;52.164;4.472;2023-04-29T09:26:52;12.93;66.74
66670;DHT22;53568;52.164;4.472;2023-04-29T09:29:18;12.99;66.89
66670;DHT22;53568;52.164;4.472;2023-04-29T09:31:45;13.13;66.21
66670;DHT22;53568;52.164;4.472;2023-04-29T09:34:11;13.13;65.47
66670;DHT22;53568;52.164;4.472;2023-04-29T09:36:48;13.34;65.56
66670;DHT22;53568;52.164;4.472;2023-04-29T09:39:22;13.39;65.10
66670;DHT22;53568;52.164;4.472;2023-04-29T09:44:21;13.39;64.64
66670;DHT22;53568;52.164;4.472;2023-04-29T09:47:04;13.33;64.47
66670;DHT22;53568;52.164;4.472;2023-04-29T09:49:41;13.28;64.73
66670;DHT22;53568;52.164;4.472;2023-04-29T09:54:38;13.48;63.91
66670;DHT22;53568;52.164;4.472;2023-04-29T09:57:06;13.60;63.80
66670;DHT22;53568;52.164;4.472;2023-04-29T09:59:33;13.67;64.32
66670;DHT22;53568;52.164;4.472;2023-04-29T10:02:01;13.78;63.44
66670;DHT22;53568;52.164;4.472;2023-04-29T10:04:34;13.73;63.84
66670;DHT22;53568;52.164;4.472;2023-04-29T10:07:02;13.75;63.99
66670;DHT22;53568;52.164;4.472;2023-04-29T10:09:29;13.64;63.75
66670;DHT22;53568;52.164;4.472;2023-04-29T10:11:55;13.71;63.76
66670;DHT22;53568;52.164;4.472;2023-04-29T10:14:23;13.78;63.46
66670;DHT22;53568;52.164;4.472;2023-04-29T10:17:01;13.77;63.89
66670;DHT22;53568;52.164;4.472;2023-04-29T10:19:39;13.74;63.76
66670;DHT22;53568;52.164;4.472;2023-04-29T10:22:28;13.98;63.31
66670;DHT22;53568;52.164;4.472;2023-04-29T10:25:00;13.97;63.54
66670;DHT22;53568;52.164;4.472;2023-04-29T10:27:26;14.00;63.19
66670;DHT22;53568;52.164;4.472;2023-04-29T10:29:55;14.22;62.56
66670;DHT22;53568;52.164;4.472;2023-04-29T10:32:24;14.32;61.74
66670;DHT22;53568;52.164;4.472;2023-04-29T10:34:54;14.36;61.04
66670;DHT22;53568;52.164;4.472;2023-04-29T10:37:21;14.41;61.22
66670;DHT22;53568;52.164;4.472;2023-04-29T10:40:04;14.48;61.56
66670;DHT22;53568;52.164;4.472;2023-04-29T10:42:48;14.46;60.96
66670;DHT22;53568;52.164;4.472;2023-04-29T10:53:16;14.42;61.03
66670;DHT22;53568;52.164;4.472;2023-04-29T10:55:56;14.41;60.86
66670;DHT22;53568;52.164;4.472;2023-04-29T10:58:44;14.45;60.62
66670;DHT22;53568;52.164;4.472;2023-04-29T11:01:16;14.18;61.84
66670;DHT22;53568;52.164;4.472;2023-04-29T11:04:01;14.26;61.44
66670;DHT22;53568;52.164;4.472;2023-04-29T11:06:38;14.41;60.26
66670;DHT22;53568;52.164;4.472;2023-04-29T11:09:24;14.26;60.45
66670;DHT22;53568;52.164;4.472;2023-04-29T11:12:02;14.35;59.94
66670;DHT22;53568;52.164;4.472;2023-04-29T11:17:09;14.26;59.94
66670;DHT22;53568;52.164;4.472;2023-04-29T11:19:40;14.25;60.18
66670;DHT22;53568;52.164;4.472;2023-04-29T11:22:12;14.05;59.74
66670;DHT22;53568;52.164;4.472;2023-04-29T11:25:01;14.25;59.39
66670;DHT22;53568;52.164;4.472;2023-04-29T11:27:32;14.25;59.35
66670;DHT22;53568;52.164;4.472;2023-04-29T11:30:00;14.22;59.59
66670;DHT22;53568;52.164;4.472;2023-04-29T11:32:27;14.25;60.04
66670;DHT22;53568;52.164;4.472;2023-04-29T11:34:54;14.32;60.35
66670;DHT22;53568;52.164;4.472;2023-04-29T11:37:25;14.18;61.01
66670;DHT22;53568;52.164;4.472;2023-04-29T11:39:58;14.01;60.83
66670;DHT22;53568;52.164;4.472;2023-04-29T11:42:24;13.97;61.29
66670;DHT22;53568;52.164;4.472;2023-04-29T11:44:56;13.87;60.96
66670;DHT22;53568;52.164;4.472;2023-04-29T11:47:27;13.98;60.95
66670;DHT22;53568;52.164;4.472;2023-04-29T11:50:01;14.25;60.43
66670;DHT22;53568;52.164;4.472;2023-04-29T11:52:28;14.32;60.66
66670;DHT22;53568;52.164;4.472;2023-04-29T11:54:53;14.18;61.27
66670;DHT22;53568;52.164;4.472;2023-04-29T11:57:19;13.88;61.83
66670;DHT22;53568;52.164;4.472;2023-04-29T11:59:45;13.71;62.89
66670;DHT22;53568;52.164;4.472;2023-04-29T12:02:11;13.70;63.26
66670;DHT22;53568;52.164;4.472;2023-04-29T12:04:47;13.63;61.26
66670;DHT22;53568;52.164;4.472;2023-04-29T12:07:14;13.68;59.95
66670;DHT22;53568;52.164;4.472;2023-04-29T12:09:42;13.54;60.55
66670;DHT22;53568;52.164;4.472;2023-04-29T12:12:08;13.53;60.51
66670;DHT22;53568;52.164;4.472;2023-04-29T12:14:34;13.53;61.80
66670;DHT22;53568;52.164;4.472;2023-04-29T12:17:00;13.71;61.36
66670;DHT22;53568;52.164;4.472;2023-04-29T12:19:26;13.67;61.16
66670;DHT22;53568;52.164;4.472;2023-04-29T12:21:52;13.81;60.86
66670;DHT22;53568;52.164;4.472;2023-04-29T12:24:19;14.01;60.73
66670;DHT22;53568;52.164;4.472;2023-04-29T12:26:45;14.09;61.12
66670;DHT22;53568;52.164;4.472;2023-04-29T12:29:12;14.12;60.43
66670;DHT22;53568;52.164;4.472;2023-04-29T12:31:38;14.07;61.17
66670;DHT22;53568;52.164;4.472;2023-04-29T12:34:04;14.12;59.96
66670;DHT22;53568;52.164;4.472;2023-04-29T12:36:29;14.08;61.09
66670;DHT22;53568;52.164;4.472;2023-04-29T12:38:57;14.28;60.98
66670;DHT22;53568;52.164;4.472;2023-04-29T12:41:40;13.88;62.28
66670;DHT22;53568;52.164;4.472;2023-04-29T12:44:06;13.88;61.18
66670;DHT22;53568;52.164;4.472;2023-04-29T12:46:36;13.85;61.71
66670;DHT22;53568;52.164;4.472;2023-04-29T12:49:03;13.95;61.66
66670;DHT22;53568;52.164;4.472;2023-04-29T12:51:31;13.95;61.99
66670;DHT22;53568;52.164;4.472;2023-04-29T12:53:58;13.85;62.01
66670;DHT22;53568;52.164;4.472;2023-04-29T12:56:24;13.88;60.62
66670;DHT22;53568;52.164;4.472;2023-04-29T12:58:50;14.02;60.42
66670;DHT22;53568;52.164;4.472;2023-04-29T13:01:16;14.24;58.80
66670;DHT22;53568;52.164;4.472;2023-04-29T13:03:42;14.09;58.88
66670;DHT22;53568;52.164;4.472;2023-04-29T13:06:07;14.22;58.73
66670;DHT22;53568;52.164;4.472;2023-04-29T13:08:33;14.19;58.67
66670;DHT22;53568;52.164;4.472;2023-04-29T13:10:59;14.14;58.94
66670;DHT22;53568;52.164;4.472;2023-04-29T13:13:24;14.15;59.53
66670;DHT22;53568;52.164;4.472;2023-04-29T13:15:51;14.22;60.32
66670;DHT22;53568;52.164;4.472;2023-04-29T13:18:17;14.21;60.29
66670;DHT22;53568;52.164;4.472;2023-04-29T13:20:42;14.29;60.46
66670;DHT22;53568;52.164;4.472;2023-04-29T13:23:08;14.31;59.47
66670;DHT22;53568;52.164;4.472;2023-04-29T13:25:34;14.18;60.01
66670;DHT22;53568;52.164;4.472;2023-04-29T13:27:59;14.02;59.69
66670;DHT22;53568;52.164;4.472;2023-04-29T13:30:25;14.00;59.50
66670;DHT22;53568;52.164;4.472;2023-04-29T13:32:51;13.74;57.92
66670;DHT22;53568;52.164;4.472;2023-04-29T13:35:16;13.84;58.17
66670;DHT22;53568;52.164;4.472;2023-04-29T13:37:42;13.73;58.48
66670;DHT22;53568;52.164;4.472;2023-04-29T13:40:08;13.65;59.43
66670;DHT22;53568;52.164;4.472;2023-04-29T13:42:33;13.95;58.76
66670;DHT22;53568;52.164;4.472;2023-04-29T13:44:59;13.82;59.66
66670;DHT22;53568;52.164;4.472;2023-04-29T13:47:24;13.97;59.65
66670;DHT22;53568;52.164;4.472;2023-04-29T13:49:50;14.18;58.83
66670;DHT22;53568;52.164;4.472;2023-04-29T13:52:16;14.07;56.82
66670;DHT22;53568;52.164;4.472;2023-04-29T13:54:41;14.00;56.74
66670;DHT22;53568;52.164;4.472;2023-04-29T13:57:07;14.07;58.16
66670;DHT22;53568;52.164;4.472;2023-04-29T13:59:34;14.17;57.52
66670;DHT22;53568;52.164;4.472;2023-04-29T14:02:01;14.05;57.59
66670;DHT22;53568;52.164;4.472;2023-04-29T14:04:28;14.09;57.76
66670;DHT22;53568;52.164;4.472;2023-04-29T14:06:54;13.89;58.55
66670;DHT22;53568;52.164;4.472;2023-04-29T14:09:21;14.00;58.35
66670;DHT22;53568;52.164;4.472;2023-04-29T14:11:48;14.09;58.36
66670;DHT22;53568;52.164;4.472;2023-04-29T14:14:14;14.05;58.14
66670;DHT22;53568;52.164;4.472;2023-04-29T14:16:40;14.01;58.94
66670;DHT22;53568;52.164;4.472;2023-04-29T14:19:06;14.07;58.23
66670;DHT22;53568;52.164;4.472;2023-04-29T14:21:32;14.22;57.53
66670;DHT22;53568;52.164;4.472;2023-04-29T14:23:59;14.31;57.75
66670;DHT22;53568;52.164;4.472;2023-04-29T14:26:25;14.35;57.55
66670;DHT22;53568;52.164;4.472;2023-04-29T14:28:51;14.36;57.69
66670;DHT22;53568;52.164;4.472;2023-04-29T14:31:29;14.39;58.10
66670;DHT22;53568;52.164;4.472;2023-04-29T14:33:56;14.31;58.18
66670;DHT22;53568;52.164;4.472;2023-04-29T14:36:22;14.19;58.59
66670;DHT22;53568;52.164;4.472;2023-04-29T14:38:47;14.22;58.89
66670;DHT22;53568;52.164;4.472;2023-04-29T14:41:13;14.22;59.24
66670;DHT22;53568;52.164;4.472;2023-04-29T14:43:38;14.24;59.52
66670;DHT22;53568;52.164;4.472;2023-04-29T14:46:06;14.01;60.24
66670;DHT22;53568;52.164;4.472;2023-04-29T14:48:31;14.21;60.18
66670;DHT22;53568;52.164;4.472;2023-04-29T14:50:57;14.38;59.83
66670;DHT22;53568;52.164;4.472;2023-04-29T14:53:22;14.36;59.69
66670;DHT22;53568;52.164;4.472;2023-04-29T14:55:49;14.14;60.32
66670;DHT22;53568;52.164;4.472;2023-04-29T14:58:14;14.00;60.22
66670;DHT22;53568;52.164;4.472;2023-04-29T15:00:40;13.98;60.85
66670;DHT22;53568;52.164;4.472;2023-04-29T15:03:06;14.01;60.04
66670;DHT22;53568;52.164;4.472;2023-04-29T15:05:32;14.01;60.01
66670;DHT22;53568;52.164;4.472;2023-04-29T15:07:57;13.91;59.10
66670;DHT22;53568;52.164;4.472;2023-04-29T15:10:24;13.75;57.84
66670;DHT22;53568;52.164;4.472;2023-04-29T15:12:50;13.77;56.97
66670;DHT22;53568;52.164;4.472;2023-04-29T15:15:17;13.77;55.50
66670;DHT22;53568;52.164;4.472;2023-04-29T15:17:42;13.97;54.28
66670;DHT22;53568;52.164;4.472;2023-04-29T15:20:09;14.05;53.29
66670;DHT22;53568;52.164;4.472;2023-04-29T15:22:35;14.14;52.62
66670;DHT22;53568;52.164;4.472;2023-04-29T15:25:00;14.35;51.82
66670;DHT22;53568;52.164;4.472;2023-04-29T15:27:26;14.41;51.62
66670;DHT22;53568;52.164;4.472;2023-04-29T15:29:52;14.49;51.19
66670;DHT22;53568;52.164;4.472;2023-04-29T15:32:20;14.39;51.75
66670;DHT22;53568;52.164;4.472;2023-04-29T15:34:45;14.41;51.60
66670;DHT22;53568;52.164;4.472;2023-04-29T15:37:11;14.41;52.07
66670;DHT22;53568;52.164;4.472;2023-04-29T15:39:37;14.38;52.26
66670;DHT22;53568;52.164;4.472;2023-04-29T15:42:02;14.38;52.13
66670;DHT22;53568;52.164;4.472;2023-04-29T15:44:28;14.39;51.94
66670;DHT22;53568;52.164;4.472;2023-04-29T15:46:55;14.32;52.39
66670;DHT22;53568;52.164;4.472;2023-04-29T15:49:20;14.32;51.75
66670;DHT22;53568;52.164;4.472;2023-04-29T15:51:46;14.26;51.46
66670;DHT22;53568;52.164;4.472;2023-04-29T15:54:12;14.12;51.70
66670;DHT22;53568;52.164;4.472;2023-04-29T15:56:37;14.22;51.13
66670;DHT22;53568;52.164;4.472;2023-04-29T15:59:03;14.11;52.23